createdAt,value
2024-03-24T00:00:13.134Z,3.6096
2024-03-24T00:01:16.161Z,3.5681
2024-03-24T00:02:19.195Z,3.5528
2024-03-24T00:03:22.215Z,3.5712
2024-03-24T00:04:25.288Z,3.6998
2024-03-24T00:05:28.323Z,3.5970
2024-03-24T00:06:31.367Z,3.6461
2024-03-24T00:07:34.396Z,3.6654
2024-03-24T00:08:37.442Z,3.6854
2024-03-24T00:09:40.495Z,3.7101
2024-03-24T00:10:43.533Z,3.7700
2024-03-24T00:11:46.574Z,3.6940
2024-03-24T00:12:49.599Z,3.6942
2024-03-24T00:13:52.652Z,3.7442
2024-03-24T00:14:55.686Z,3.7004
2024-03-24T00:15:59.066Z,3.6764
2024-03-24T00:17:02.121Z,3.7746
2024-03-24T00:18:05.126Z,3.7255
2024-03-24T00:19:08.219Z,3.7337
2024-03-24T00:20:11.252Z,3.8175
2024-03-24T00:21:14.261Z,3.8152
2024-03-24T00:22:17.550Z,3.8164
2024-03-24T00:23:20.590Z,3.7980
2024-03-24T00:24:23.728Z,3.8897
2024-03-24T00:25:26.734Z,3.8976
2024-03-24T00:26:29.769Z,3.9318
2024-03-24T00:27:32.745Z,3.9100
2024-03-24T00:28:35.921Z,3.9035
2024-03-24T00:29:38.939Z,3.8552
2024-03-24T00:30:41.900Z,3.8345
2024-03-24T00:31:44.983Z,3.8363
2024-03-24T00:32:48.018Z,3.8314
2024-03-24T00:33:51.040Z,3.7997
2024-03-24T00:34:54.410Z,3.8930
2024-03-24T00:35:57.608Z,3.9164
2024-03-24T00:37:00.797Z,3.8412
2024-03-24T00:38:03.825Z,3.8623
2024-03-24T00:39:06.883Z,3.7839
2024-03-24T00:40:09.918Z,3.7561
2024-03-24T00:41:12.909Z,3.7515
2024-03-24T00:42:16.004Z,3.7713
2024-03-24T00:43:19.058Z,3.7526
2024-03-24T00:44:22.099Z,3.8233
2024-03-24T00:45:25.146Z,3.7568
2024-03-24T00:46:28.180Z,3.8332
2024-03-24T00:47:31.244Z,3.7728
2024-03-24T00:48:34.247Z,3.7823
2024-03-24T00:49:37.244Z,3.7279
2024-03-24T00:50:40.347Z,3.6958
2024-03-24T00:51:43.362Z,3.6967
2024-03-24T00:52:46.669Z,3.7311
2024-03-24T00:53:49.766Z,3.7391
2024-03-24T00:54:52.787Z,3.7596
2024-03-24T00:55:55.844Z,3.7706
2024-03-24T00:56:58.901Z,3.7510
2024-03-24T00:58:02.275Z,3.6931
2024-03-24T00:59:05.286Z,3.6537
2024-03-24T01:00:08.324Z,3.5874
2024-03-24T01:01:11.391Z,3.6610
2024-03-24T01:02:14.355Z,3.6041
2024-03-24T01:03:17.451Z,3.6446
2024-03-24T01:04:20.507Z,3.6828
2024-03-24T01:05:23.556Z,3.6062
2024-03-24T01:06:26.601Z,3.5945
2024-03-24T01:07:29.676Z,3.5693
2024-03-24T01:08:32.724Z,3.5675
2024-03-24T01:09:35.712Z,3.5860
2024-03-24T01:10:38.752Z,3.5851
2024-03-24T01:11:41.900Z,3.5558
2024-03-24T01:12:44.883Z,3.5605
2024-03-24T01:13:47.900Z,3.5107
2024-03-24T01:14:50.904Z,3.5369
2024-03-24T01:15:53.930Z,3.4869
2024-03-24T01:16:56.893Z,3.4647
2024-03-24T01:18:00.015Z,3.4596
2024-03-24T01:19:03.094Z,3.4737
2024-03-24T01:20:06.073Z,3.4896
2024-03-24T01:21:09.150Z,3.4464
2024-03-24T01:22:12.202Z,3.4037
2024-03-24T01:23:15.198Z,3.4137
2024-03-24T01:24:18.250Z,3.4405
2024-03-24T01:25:21.292Z,3.4068
2024-03-24T01:26:24.392Z,3.3911
2024-03-24T01:27:27.422Z,3.3852
2024-03-24T01:28:30.542Z,3.4183
2024-03-24T01:29:33.532Z,3.4325
2024-03-24T01:30:36.581Z,3.3991
2024-03-24T01:31:39.652Z,3.3849
2024-03-24T01:32:42.652Z,3.4187
2024-03-24T01:33:45.673Z,3.3926
2024-03-24T01:34:48.967Z,3.3846
2024-03-24T01:35:52.045Z,3.3997
2024-03-24T01:36:55.061Z,3.3432
2024-03-24T01:37:58.062Z,3.3482
2024-03-24T01:39:01.132Z,3.3638
2024-03-24T01:40:04.167Z,3.3467
2024-03-24T01:41:07.189Z,3.3303
2024-03-24T01:42:10.196Z,3.3030
2024-03-24T01:43:13.298Z,3.2748
2024-03-24T01:44:16.342Z,3.2560
2024-03-24T01:45:19.353Z,3.1991
2024-03-24T01:46:22.462Z,3.1758
2024-03-24T01:47:25.486Z,3.1893
2024-03-24T01:48:28.493Z,3.1365
2024-03-24T01:49:31.675Z,3.1008
2024-03-24T01:50:34.703Z,3.1248
2024-03-24T01:51:37.684Z,3.1039
2024-03-24T01:52:40.715Z,3.0788
2024-03-24T01:53:43.684Z,3.0564
2024-03-24T01:54:46.746Z,3.0447
2024-03-24T01:55:49.763Z,3.0214
2024-03-24T01:56:52.821Z,3.0331
2024-03-24T01:57:55.867Z,3.0095
2024-03-24T01:58:58.915Z,2.9821
2024-03-24T02:00:01.915Z,2.9428
2024-03-24T02:01:04.936Z,2.9238
2024-03-24T02:02:07.946Z,2.8794
2024-03-24T02:03:11.023Z,2.8458
2024-03-24T02:04:14.132Z,2.7784
2024-03-24T02:05:17.088Z,2.7818
2024-03-24T02:06:20.131Z,2.7884
2024-03-24T02:07:23.166Z,2.7855
2024-03-24T02:08:26.190Z,2.7283
2024-03-24T02:09:29.234Z,2.6891
2024-03-24T02:10:32.275Z,2.6901
2024-03-24T02:11:35.318Z,2.6633
2024-03-24T02:12:38.312Z,2.6514
2024-03-24T02:13:41.426Z,2.6542
2024-03-24T02:14:44.441Z,2.6158
2024-03-24T02:15:47.467Z,2.5946
2024-03-24T02:16:50.535Z,2.5755
2024-03-24T02:17:57.815Z,2.5726
2024-03-24T02:18:55.646Z,2.5392
2024-03-24T02:19:58.644Z,2.5353
2024-03-24T02:21:01.726Z,2.5706
2024-03-24T02:22:04.755Z,2.5041
2024-03-24T02:23:07.914Z,2.4857
2024-03-24T02:24:10.907Z,2.4497
2024-03-24T02:25:13.920Z,2.4058
2024-03-24T02:26:17.267Z,2.4053
2024-03-24T02:27:20.344Z,2.3483
2024-03-24T02:28:23.384Z,2.2985
2024-03-24T02:29:26.674Z,2.2776
2024-03-24T02:30:26.588Z,2.2461
2024-03-24T02:31:29.577Z,2.2349
2024-03-24T02:32:32.669Z,2.1878
2024-03-24T02:33:35.703Z,2.1731
2024-03-24T02:34:38.723Z,2.2265
2024-03-24T02:35:41.726Z,2.2323
2024-03-24T02:36:44.753Z,2.2985
2024-03-24T02:37:47.799Z,2.3460
2024-03-24T02:38:50.844Z,2.4145
2024-03-24T02:39:53.952Z,2.4104
2024-03-24T02:40:56.985Z,2.4822
2024-03-24T02:42:00.072Z,2.4830
2024-03-24T02:43:03.109Z,2.4998
2024-03-24T02:44:06.149Z,2.5117
2024-03-24T02:45:09.244Z,2.5305
2024-03-24T02:46:12.273Z,2.5492
2024-03-24T02:47:15.488Z,2.5400
2024-03-24T02:48:18.532Z,2.5778
2024-03-24T02:49:21.554Z,2.6051
2024-03-24T02:50:24.586Z,2.6198
2024-03-24T02:51:27.906Z,2.6418
2024-03-24T02:52:30.993Z,2.6548
2024-03-24T02:53:34.068Z,2.6410
2024-03-24T02:54:37.136Z,2.6379
2024-03-24T02:55:40.136Z,2.6261
2024-03-24T02:56:43.154Z,2.6063
2024-03-24T02:57:46.353Z,2.6117
2024-03-24T02:58:49.351Z,2.6293
2024-03-24T02:59:52.617Z,2.6379
2024-03-24T03:00:55.624Z,2.6379
2024-03-24T03:01:58.677Z,2.6480
2024-03-24T03:03:01.712Z,2.6419
2024-03-24T03:04:04.708Z,2.6121
2024-03-24T03:05:07.811Z,2.6394
2024-03-24T03:06:11.170Z,2.5961
2024-03-24T03:07:14.174Z,2.6410
2024-03-24T03:08:17.195Z,2.6510
2024-03-24T03:09:20.285Z,2.6615
2024-03-24T03:10:23.324Z,2.6587
2024-03-24T03:11:26.341Z,2.6829
2024-03-24T03:12:29.421Z,2.6569
2024-03-24T03:13:32.409Z,2.6712
2024-03-24T03:14:35.478Z,2.6722
2024-03-24T03:15:38.687Z,2.6683
2024-03-24T03:16:41.692Z,2.6324
2024-03-24T03:17:44.673Z,2.5977
2024-03-24T03:18:47.963Z,2.5942
2024-03-24T03:19:50.990Z,2.5841
2024-03-24T03:20:54.043Z,2.6057
2024-03-24T03:21:57.042Z,2.5632
2024-03-24T03:23:00.144Z,2.5287
2024-03-24T03:24:03.159Z,2.5584
2024-03-24T03:25:06.205Z,2.5057
2024-03-24T03:26:09.240Z,2.4825
2024-03-24T03:27:12.229Z,2.5029
2024-03-24T03:28:15.333Z,2.4611
2024-03-24T03:29:18.364Z,2.4280
2024-03-24T03:30:21.443Z,2.4310
2024-03-24T03:31:24.443Z,2.4288
2024-03-24T03:32:27.498Z,2.4568
2024-03-24T03:33:30.555Z,2.4409
2024-03-24T03:34:33.565Z,2.3388
2024-03-24T03:35:36.604Z,2.3240
2024-03-24T03:36:39.640Z,2.3202
2024-03-24T03:37:42.735Z,2.2942
2024-03-24T03:38:45.818Z,2.3154
2024-03-24T03:39:48.882Z,2.2937
2024-03-24T03:40:51.901Z,2.2650
2024-03-24T03:41:55.166Z,2.2190
2024-03-24T03:42:58.189Z,1.9730
2024-03-24T03:44:01.255Z,1.8448
2024-03-24T03:45:04.281Z,1.7632
2024-03-24T03:46:07.320Z,1.7153
2024-03-24T03:47:10.306Z,1.7158
2024-03-24T03:48:13.398Z,1.6751
2024-03-24T03:49:16.523Z,1.6637
2024-03-24T03:50:19.574Z,1.6959
2024-03-24T03:51:22.618Z,1.7081
2024-03-24T03:52:25.668Z,1.6983
2024-03-24T03:53:28.686Z,1.7512
2024-03-24T03:54:31.731Z,1.8092
2024-03-24T03:55:34.750Z,1.8466
2024-03-24T03:56:37.861Z,1.9238
2024-03-24T03:57:40.867Z,1.9678
2024-03-24T03:58:43.891Z,1.9752
2024-03-24T03:59:46.987Z,2.0313
2024-03-24T04:00:49.949Z,2.0726
2024-03-24T04:01:52.931Z,2.1224
2024-03-24T04:02:55.972Z,2.1273
2024-03-24T04:03:58.942Z,2.2073
2024-03-24T04:05:02.044Z,2.1872
2024-03-24T04:06:05.067Z,2.2052
2024-03-24T04:07:08.119Z,2.2354
2024-03-24T04:08:11.186Z,2.2455
2024-03-24T04:09:14.213Z,2.2458
2024-03-24T04:10:17.395Z,2.2344
2024-03-24T04:11:20.420Z,2.2224
2024-03-24T04:12:23.472Z,2.2122
2024-03-24T04:13:26.775Z,2.2314
2024-03-24T04:14:29.795Z,2.2755
2024-03-24T04:15:32.781Z,2.2991
2024-03-24T04:16:35.970Z,2.2485
2024-03-24T04:17:38.953Z,2.2255
2024-03-24T04:18:42.023Z,2.2178
2024-03-24T04:19:45.028Z,2.2375
2024-03-24T04:20:48.294Z,2.2418
2024-03-24T04:21:51.343Z,2.2133
2024-03-24T04:22:54.373Z,2.1976
2024-03-24T04:23:57.423Z,2.2071
2024-03-24T04:25:00.528Z,2.2160
2024-03-24T04:26:03.525Z,2.2326
2024-03-24T04:27:06.544Z,2.2383
2024-03-24T04:28:09.557Z,2.2393
2024-03-24T04:29:12.562Z,2.2581
2024-03-24T04:30:15.682Z,2.3071
2024-03-24T04:31:18.689Z,2.3046
2024-03-24T04:32:21.745Z,2.2838
2024-03-24T04:33:24.755Z,2.2424
2024-03-24T04:34:27.766Z,2.2165
2024-03-24T04:35:30.857Z,2.2006
2024-03-24T04:36:34.043Z,2.1855
2024-03-24T04:37:37.046Z,2.1817
2024-03-24T04:38:40.059Z,2.1552
2024-03-24T04:39:43.326Z,2.1825
2024-03-24T04:40:46.396Z,2.1724
2024-03-24T04:41:49.475Z,2.1669
2024-03-24T04:42:52.643Z,2.1614
2024-03-24T04:43:55.782Z,2.1684
2024-03-24T04:44:58.843Z,2.1500
2024-03-24T04:46:01.894Z,2.1439
2024-03-24T04:47:04.919Z,2.1647
2024-03-24T04:48:07.955Z,2.1509
2024-03-24T04:49:11.016Z,2.1461
2024-03-24T04:50:14.042Z,2.1444
2024-03-24T04:51:17.143Z,2.1555
2024-03-24T04:52:20.184Z,2.1877
2024-03-24T04:53:23.252Z,2.1823
2024-03-24T04:54:26.515Z,2.1847
2024-03-24T04:55:29.586Z,2.1427
2024-03-24T04:56:32.612Z,2.1493
2024-03-24T04:57:35.632Z,2.1671
2024-03-24T04:58:38.691Z,2.1786
2024-03-24T04:59:41.784Z,2.2329
2024-03-24T05:00:44.868Z,2.2300
2024-03-24T05:01:47.884Z,2.2139
2024-03-24T05:02:50.943Z,2.2016
2024-03-24T05:03:53.961Z,2.1909
2024-03-24T05:04:56.956Z,2.2059
2024-03-24T05:06:00.049Z,2.2058
2024-03-24T05:07:03.088Z,2.1777
2024-03-24T05:08:06.114Z,2.1427
2024-03-24T05:09:09.123Z,2.2393
2024-03-24T05:10:12.219Z,2.2199
2024-03-24T05:11:15.203Z,2.2221
2024-03-24T05:12:18.351Z,2.2191
2024-03-24T05:13:21.343Z,2.0869
2024-03-24T05:14:24.387Z,1.9786
2024-03-24T05:15:27.455Z,1.9147
2024-03-24T05:16:30.489Z,1.8337
2024-03-24T05:17:33.631Z,1.7026
2024-03-24T05:18:36.800Z,1.5698
2024-03-24T05:19:39.834Z,1.4435
2024-03-24T05:20:42.869Z,1.3446
2024-03-24T05:21:45.935Z,1.3612
2024-03-24T05:22:49.036Z,1.3933
2024-03-24T05:23:52.104Z,1.3802
2024-03-24T05:24:55.362Z,1.2695
2024-03-24T05:25:58.365Z,1.2314
2024-03-24T05:27:01.465Z,1.1733
2024-03-24T05:28:04.543Z,1.1989
2024-03-24T05:29:07.572Z,1.1465
2024-03-24T05:30:10.643Z,1.0166
2024-03-24T05:31:13.919Z,0.9868
2024-03-24T05:32:16.952Z,0.9982
2024-03-24T05:33:19.992Z,0.8920
2024-03-24T05:34:23.032Z,0.8458
2024-03-24T05:35:26.068Z,0.7450
2024-03-24T05:36:28.561Z,0.7803
2024-03-24T05:37:30.997Z,0.7243
2024-03-24T05:38:33.593Z,0.7236
2024-03-24T05:39:36.049Z,0.6666
2024-03-24T05:40:38.533Z,0.6433
2024-03-24T05:41:41.109Z,0.6525
2024-03-24T05:42:43.624Z,0.6650
2024-03-24T05:43:46.237Z,0.7237
2024-03-24T05:44:48.727Z,0.7110
2024-03-24T05:45:51.191Z,0.7493
2024-03-24T05:46:53.771Z,0.7260
2024-03-24T05:47:56.225Z,0.7534
2024-03-24T05:48:58.701Z,0.7086
2024-03-24T05:50:01.198Z,0.6715
2024-03-24T05:51:03.699Z,0.6883
2024-03-24T05:52:06.161Z,0.7328
2024-03-24T05:53:08.808Z,0.7911
2024-03-24T05:54:11.315Z,0.8225
2024-03-24T05:55:13.756Z,0.8332
2024-03-24T05:56:16.307Z,0.7933
2024-03-24T05:57:18.792Z,0.9018
2024-03-24T05:58:21.255Z,0.9572
2024-03-24T05:59:23.896Z,1.0102
2024-03-24T06:00:26.505Z,1.0884
2024-03-24T06:01:28.922Z,1.1075
2024-03-24T06:02:31.360Z,1.1543
2024-03-24T06:03:34.087Z,1.2418
2024-03-24T06:04:36.482Z,1.2907
2024-03-24T06:05:38.900Z,1.3760
2024-03-24T06:06:41.353Z,1.4308
2024-03-24T06:07:43.811Z,1.4605
2024-03-24T06:08:46.375Z,1.5241
2024-03-24T06:09:48.791Z,1.5794
2024-03-24T06:10:51.514Z,1.6116
2024-03-24T06:11:54.033Z,1.6276
2024-03-24T06:12:56.440Z,1.6109
2024-03-24T06:13:58.960Z,1.6302
2024-03-24T06:15:01.382Z,1.6653
2024-03-24T06:16:03.832Z,1.6714
2024-03-24T06:17:06.257Z,1.6910
2024-03-24T06:18:08.945Z,1.7110
2024-03-24T06:19:14.213Z,1.6950
2024-03-24T06:20:13.735Z,1.6973
2024-03-24T06:21:16.157Z,1.7230
2024-03-24T06:22:18.574Z,1.7115
2024-03-24T06:23:21.022Z,1.7351
2024-03-24T06:24:23.461Z,1.7945
2024-03-24T06:25:25.911Z,1.8214
2024-03-24T06:26:28.474Z,1.8560
2024-03-24T06:27:30.925Z,1.9472
2024-03-24T06:28:33.603Z,2.0316
2024-03-24T06:29:36.047Z,2.0678
2024-03-24T06:30:38.667Z,2.0852
2024-03-24T06:31:43.842Z,2.1763
2024-03-24T06:32:44.808Z,2.2188
2024-03-24T06:33:47.277Z,2.2814
2024-03-24T06:34:49.713Z,2.3740
2024-03-24T06:35:52.311Z,2.3859
2024-03-24T06:36:54.718Z,2.3779
2024-03-24T06:37:57.179Z,2.3850
2024-03-24T06:38:59.604Z,2.3559
2024-03-24T06:40:02.031Z,2.4185
2024-03-24T06:41:04.479Z,2.4848
2024-03-24T06:42:07.027Z,2.4796
2024-03-24T06:43:09.521Z,2.5149
2024-03-24T06:44:11.914Z,2.5016
2024-03-24T06:45:14.382Z,2.6373
2024-03-24T06:46:16.958Z,2.6982
2024-03-24T06:47:19.398Z,2.7260
2024-03-24T06:48:21.865Z,2.7112
2024-03-24T06:49:24.303Z,2.7864
2024-03-24T06:50:26.874Z,2.7253
2024-03-24T06:51:29.312Z,2.7082
2024-03-24T06:52:32.040Z,2.7611
2024-03-24T06:53:34.800Z,2.6949
2024-03-24T06:54:37.370Z,2.6204
2024-03-24T06:55:39.794Z,2.6499
2024-03-24T06:56:42.554Z,2.7125
2024-03-24T06:57:45.284Z,2.6410
2024-03-24T06:58:47.745Z,2.6238
2024-03-24T06:59:50.182Z,2.7170
2024-03-24T07:00:52.618Z,2.8035
2024-03-24T07:01:55.200Z,2.7474
2024-03-24T07:02:57.638Z,2.7446
2024-03-24T07:04:00.299Z,2.8464
2024-03-24T07:05:02.760Z,2.8863
2024-03-24T07:06:05.429Z,2.9763
2024-03-24T07:07:07.842Z,3.0245
2024-03-24T07:08:10.279Z,2.9606
2024-03-24T07:09:12.742Z,2.8560
2024-03-24T07:10:15.183Z,2.9619
2024-03-24T07:11:17.762Z,2.9021
2024-03-24T07:12:20.189Z,2.9946
2024-03-24T07:13:22.830Z,3.0097
2024-03-24T07:14:25.272Z,3.0432
2024-03-24T07:15:27.741Z,3.0471
2024-03-24T07:16:30.199Z,2.9588
2024-03-24T07:17:32.621Z,2.9963
2024-03-24T07:18:35.041Z,3.1067
2024-03-24T07:19:37.601Z,3.1244
2024-03-24T07:20:40.040Z,3.3055
2024-03-24T07:21:42.448Z,3.5682
2024-03-24T07:22:44.940Z,3.6841
2024-03-24T07:23:47.385Z,3.7477
2024-03-24T07:24:49.930Z,3.8598
2024-03-24T07:25:52.632Z,3.8552
2024-03-24T07:26:55.133Z,3.7230
2024-03-24T07:27:58.069Z,3.5948
2024-03-24T07:29:01.124Z,3.4973
2024-03-24T07:30:04.161Z,3.4985
2024-03-24T07:31:07.180Z,3.4776
2024-03-24T07:32:10.231Z,3.4853
2024-03-24T07:33:13.410Z,3.5411
2024-03-24T07:34:16.434Z,3.3982
2024-03-24T07:35:19.486Z,3.4304
2024-03-24T07:36:22.509Z,3.3484
2024-03-24T07:37:25.520Z,3.3591
2024-03-24T07:38:28.543Z,3.4825
2024-03-24T07:39:31.576Z,3.5071
2024-03-24T07:40:34.871Z,3.7308
2024-03-24T07:41:37.914Z,3.7911
2024-03-24T07:42:43.515Z,4.1223
2024-03-24T07:43:44.061Z,4.1892
2024-03-24T07:44:47.111Z,4.1010
2024-03-24T07:45:50.127Z,4.1389
2024-03-24T07:46:53.226Z,4.0169
2024-03-24T07:47:56.258Z,4.1664
2024-03-24T07:48:59.298Z,4.2821
2024-03-24T07:50:02.335Z,4.2186
2024-03-24T07:51:05.342Z,4.2418
2024-03-24T07:52:08.361Z,4.2125
2024-03-24T07:53:11.390Z,4.3603
2024-03-24T07:54:14.526Z,4.4008
2024-03-24T07:55:17.584Z,4.2355
2024-03-24T07:56:20.557Z,4.2370
2024-03-24T07:57:23.831Z,4.2244
2024-03-24T07:58:27.053Z,4.2242
2024-03-24T07:59:30.198Z,4.3785
2024-03-24T08:00:33.253Z,4.5448
2024-03-24T08:01:36.305Z,4.3425
2024-03-24T08:02:39.387Z,4.2566
2024-03-24T08:03:42.381Z,4.2403
2024-03-24T08:04:45.471Z,4.3710
2024-03-24T08:05:48.548Z,4.3628
2024-03-24T08:06:51.630Z,4.3567
2024-03-24T08:07:56.440Z,4.3931
2024-03-24T08:08:56.422Z,4.4666
2024-03-24T08:09:59.651Z,4.4570
2024-03-24T08:11:02.703Z,4.5221
2024-03-24T08:12:05.831Z,4.7524
2024-03-24T08:13:08.841Z,4.9734
2024-03-24T08:14:11.936Z,4.9242
2024-03-24T08:15:14.953Z,4.7840
2024-03-24T08:16:17.965Z,4.6841
2024-03-24T08:17:21.267Z,4.5282
2024-03-24T08:18:24.301Z,4.4094
2024-03-24T08:19:27.341Z,4.5024
2024-03-24T08:20:30.431Z,4.5214
2024-03-24T08:21:33.522Z,4.6429
2024-03-24T08:22:36.804Z,4.4566
2024-03-24T08:23:39.909Z,4.4578
2024-03-24T08:24:42.928Z,4.5612
2024-03-24T08:25:45.896Z,4.5923
2024-03-24T08:26:48.968Z,4.4291
2024-03-24T08:27:51.981Z,4.6184
2024-03-24T08:28:55.007Z,4.7120
2024-03-24T08:29:58.052Z,4.5531
2024-03-24T08:31:01.061Z,4.5002
2024-03-24T08:32:04.074Z,4.4898
2024-03-24T08:33:07.181Z,4.4799
2024-03-24T08:34:10.220Z,4.4899
2024-03-24T08:35:13.221Z,4.6353
2024-03-24T08:36:16.629Z,4.7024
2024-03-24T08:37:19.696Z,4.6806
2024-03-24T08:38:22.869Z,4.5610
2024-03-24T08:39:25.889Z,4.6042
2024-03-24T08:40:31.120Z,4.6462
2024-03-24T08:41:31.911Z,4.5734
2024-03-24T08:42:34.904Z,4.6039
2024-03-24T08:43:37.899Z,4.5306
2024-03-24T08:44:40.958Z,4.5189
2024-03-24T08:45:43.994Z,4.4788
2024-03-24T08:46:47.043Z,4.6199
2024-03-24T08:47:50.058Z,5.5076
2024-03-24T08:48:53.087Z,5.5725
2024-03-24T08:49:56.147Z,6.2033
2024-03-24T08:50:59.126Z,5.9655
2024-03-24T08:52:02.253Z,5.5139
2024-03-24T08:53:05.258Z,5.2326
2024-03-24T08:54:08.567Z,5.2186
2024-03-24T08:55:11.704Z,4.8633
2024-03-24T08:56:14.700Z,4.5984
2024-03-24T08:57:17.736Z,4.4462
2024-03-24T08:58:20.800Z,4.4382
2024-03-24T08:59:23.996Z,4.3624
2024-03-24T09:00:27.190Z,4.4784
2024-03-24T09:01:30.283Z,4.3606
2024-03-24T09:02:33.503Z,4.0947
2024-03-24T09:03:36.600Z,4.1787
2024-03-24T09:04:39.690Z,4.3029
2024-03-24T09:05:42.756Z,4.8441
2024-03-24T09:06:45.769Z,5.0994
2024-03-24T09:07:48.817Z,6.1794
2024-03-24T09:08:51.865Z,5.7664
2024-03-24T09:09:54.893Z,5.2678
2024-03-24T09:10:57.888Z,5.5450
2024-03-24T09:12:01.046Z,5.8445
2024-03-24T09:13:04.060Z,6.4577
2024-03-24T09:14:07.076Z,6.9388
2024-03-24T09:15:10.267Z,7.4571
2024-03-24T09:16:13.239Z,7.5332
2024-03-24T09:17:16.392Z,7.4159
2024-03-24T09:18:19.495Z,7.7061
2024-03-24T09:19:22.548Z,7.6105
2024-03-24T09:20:25.620Z,7.2218
2024-03-24T09:21:28.643Z,7.2822
2024-03-24T09:22:31.657Z,7.2591
2024-03-24T09:23:34.706Z,8.2054
2024-03-24T09:24:37.752Z,8.0703
2024-03-24T09:25:40.772Z,8.2400
2024-03-24T09:26:43.822Z,8.8589
2024-03-24T09:27:46.869Z,9.6440
2024-03-24T09:28:49.889Z,9.2773
2024-03-24T09:29:52.989Z,9.3864
2024-03-24T09:30:56.033Z,9.7573
2024-03-24T09:31:59.075Z,10.2620
2024-03-24T09:33:02.092Z,9.6277
2024-03-24T09:34:05.354Z,8.7189
2024-03-24T09:35:13.272Z,9.2298
2024-03-24T09:36:10.583Z,9.2844
2024-03-24T09:37:13.575Z,7.3442
2024-03-24T09:38:16.856Z,6.8035
2024-03-24T09:39:19.962Z,6.7093
2024-03-24T09:40:23.054Z,8.1281
2024-03-24T09:41:26.096Z,6.5430
2024-03-24T09:42:29.100Z,6.3868
2024-03-24T09:43:32.160Z,6.3745
2024-03-24T09:44:35.234Z,7.4236
2024-03-24T09:45:38.260Z,8.2002
2024-03-24T09:46:41.242Z,7.1996
2024-03-24T09:47:44.301Z,6.5787
2024-03-24T09:48:47.301Z,6.4704
2024-03-24T09:49:50.319Z,6.7047
2024-03-24T09:50:53.393Z,8.5591
2024-03-24T09:51:56.452Z,9.1529
2024-03-24T09:52:59.489Z,10.2188
2024-03-24T09:54:02.553Z,8.5638
2024-03-24T09:55:05.580Z,10.1064
2024-03-24T09:56:08.608Z,10.4654
2024-03-24T09:57:11.663Z,8.8733
2024-03-24T09:58:17.214Z,8.5125
2024-03-24T09:59:17.462Z,8.0296
2024-03-24T10:00:20.724Z,8.0768
2024-03-24T10:01:23.826Z,10.4335
2024-03-24T10:02:26.845Z,10.1657
2024-03-24T10:03:29.922Z,9.4707
2024-03-24T10:04:32.922Z,9.6846
2024-03-24T10:05:35.981Z,8.1971
2024-03-24T10:06:38.996Z,7.6116
2024-03-24T10:07:42.053Z,7.3266
2024-03-24T10:08:45.104Z,7.2097
2024-03-24T10:09:48.187Z,6.8254
2024-03-24T10:10:51.163Z,6.8036
2024-03-24T10:11:54.314Z,6.8005
2024-03-24T10:12:57.334Z,6.8517
2024-03-24T10:14:00.364Z,6.4412
2024-03-24T10:15:03.389Z,6.2095
2024-03-24T10:16:06.400Z,5.9721
2024-03-24T10:17:09.433Z,5.9383
2024-03-24T10:18:09.652Z,5.9079
2024-03-24T10:19:12.697Z,5.8026
2024-03-24T10:20:15.746Z,5.8545
2024-03-24T10:21:18.741Z,5.7331
2024-03-24T10:22:22.090Z,5.3278
2024-03-24T10:23:25.100Z,5.2100
2024-03-24T10:24:28.140Z,5.1646
2024-03-24T10:25:31.198Z,4.9829
2024-03-24T10:26:34.269Z,4.9544
2024-03-24T10:27:37.297Z,5.1491
2024-03-24T10:28:40.313Z,5.2054
2024-03-24T10:29:43.429Z,5.0963
2024-03-24T10:30:46.445Z,5.1277
2024-03-24T10:31:52.731Z,5.0466
2024-03-24T10:32:52.843Z,5.4771
2024-03-24T10:33:55.848Z,5.6458
2024-03-24T10:34:58.858Z,6.3460
2024-03-24T10:36:02.032Z,6.8627
2024-03-24T10:37:05.041Z,7.0478
2024-03-24T10:38:08.189Z,7.6903
2024-03-24T10:39:11.242Z,7.1701
2024-03-24T10:40:14.371Z,6.1740
2024-03-24T10:41:17.420Z,6.8854
2024-03-24T10:42:20.459Z,7.3948
2024-03-24T10:43:23.525Z,7.8212
2024-03-24T10:44:26.502Z,7.6196
2024-03-24T10:45:29.542Z,7.2281
2024-03-24T10:46:32.579Z,7.3522
2024-03-24T10:47:35.712Z,7.9587
2024-03-24T10:48:38.730Z,7.6923
2024-03-24T10:49:41.789Z,7.8299
2024-03-24T10:50:44.814Z,8.4116
2024-03-24T10:51:47.855Z,8.0476
2024-03-24T10:52:53.250Z,8.0272
2024-03-24T10:53:53.318Z,8.9056
2024-03-24T10:54:56.348Z,8.2634
2024-03-24T10:55:59.379Z,9.2663
2024-03-24T10:57:02.394Z,8.8407
2024-03-24T10:58:05.413Z,8.8233
2024-03-24T10:59:11.307Z,8.3882
2024-03-24T11:00:08.717Z,8.0946
2024-03-24T11:01:11.999Z,7.7331
2024-03-24T11:02:15.077Z,7.6638
2024-03-24T11:03:18.131Z,7.3393
2024-03-24T11:04:21.149Z,6.7627
2024-03-24T11:05:24.160Z,6.4164
2024-03-24T11:06:27.180Z,5.9251
2024-03-24T11:07:30.246Z,4.9170
2024-03-24T11:08:33.269Z,4.6438
2024-03-24T11:09:36.289Z,4.2772
2024-03-24T11:10:39.346Z,3.9446
2024-03-24T11:11:42.478Z,3.6095
2024-03-24T11:12:45.609Z,3.2821
2024-03-24T11:13:48.778Z,3.1907
2024-03-24T11:14:51.880Z,3.1632
2024-03-24T11:15:54.904Z,3.3792
2024-03-24T11:16:57.408Z,3.7691
2024-03-24T11:17:59.971Z,4.1039
2024-03-24T11:19:02.420Z,4.5665
2024-03-24T11:20:04.886Z,5.0004
2024-03-24T11:21:07.347Z,5.0581
2024-03-24T11:22:09.772Z,5.1169
2024-03-24T11:23:12.292Z,5.2353
2024-03-24T11:24:14.747Z,5.6733
2024-03-24T11:25:17.350Z,5.4495
2024-03-24T11:26:19.898Z,5.7443
2024-03-24T11:27:22.926Z,5.9128
2024-03-24T11:28:23.083Z,6.0553
2024-03-24T11:29:26.177Z,6.4227
2024-03-24T11:30:29.177Z,7.0713
2024-03-24T11:31:32.167Z,7.0407
2024-03-24T11:32:35.178Z,7.5840
2024-03-24T11:33:38.220Z,7.0312
2024-03-24T11:34:41.248Z,6.7490
2024-03-24T11:35:44.340Z,6.5280
2024-03-24T11:36:47.375Z,6.5867
2024-03-24T11:37:50.445Z,6.9278
2024-03-24T11:38:53.418Z,7.4904
2024-03-24T11:39:56.495Z,7.6593
2024-03-24T11:40:59.539Z,8.0792
2024-03-24T11:42:02.592Z,8.5560
2024-03-24T11:43:05.619Z,8.0007
2024-03-24T11:44:08.645Z,8.0324
2024-03-24T11:45:11.727Z,8.0520
2024-03-24T11:46:14.717Z,8.2254
2024-03-24T11:47:17.778Z,8.5548
2024-03-24T11:48:20.829Z,9.1930
2024-03-24T11:49:23.849Z,8.9365
2024-03-24T11:50:27.239Z,8.8283
2024-03-24T11:51:30.262Z,8.0683
2024-03-24T11:52:33.366Z,8.2229
2024-03-24T11:53:36.395Z,8.5942
2024-03-24T11:54:39.420Z,8.7964
2024-03-24T11:55:42.419Z,8.8966
2024-03-24T11:56:45.465Z,8.6841
2024-03-24T11:57:48.529Z,8.6723
2024-03-24T11:58:51.540Z,8.4087
2024-03-24T11:59:54.576Z,8.3733
2024-03-24T12:00:57.628Z,8.5806
2024-03-24T12:02:00.662Z,9.5861
2024-03-24T12:03:03.747Z,9.2734
2024-03-24T12:04:06.736Z,8.5729
2024-03-24T12:05:09.748Z,8.6426
2024-03-24T12:06:12.798Z,8.4536
2024-03-24T12:07:15.898Z,8.4444
2024-03-24T12:08:18.908Z,8.2386
2024-03-24T12:09:21.921Z,8.2171
2024-03-24T12:10:24.987Z,8.1648
2024-03-24T12:11:28.027Z,7.9949
2024-03-24T12:12:31.067Z,8.9705
2024-03-24T12:13:34.116Z,9.3369
2024-03-24T12:14:37.146Z,8.7160
2024-03-24T12:15:40.171Z,8.4225
2024-03-24T12:16:43.247Z,8.4066
2024-03-24T12:17:46.287Z,8.4039
2024-03-24T12:18:49.306Z,8.4592
2024-03-24T12:19:52.372Z,8.4675
2024-03-24T12:20:55.504Z,9.6204
2024-03-24T12:21:58.570Z,9.7403
2024-03-24T12:23:01.606Z,9.2959
2024-03-24T12:24:04.826Z,9.8399
2024-03-24T12:25:07.824Z,8.3109
2024-03-24T12:26:10.834Z,8.2579
2024-03-24T12:27:13.940Z,8.5330
2024-03-24T12:28:16.985Z,9.9899
2024-03-24T12:29:20.020Z,9.7303
2024-03-24T12:30:23.074Z,10.2009
2024-03-24T12:31:26.426Z,9.2148
2024-03-24T12:32:29.461Z,9.8668
2024-03-24T12:33:32.499Z,8.8886
2024-03-24T12:34:35.540Z,9.1636
2024-03-24T12:35:38.588Z,8.3900
2024-03-24T12:36:41.618Z,7.8991
2024-03-24T12:37:44.698Z,7.6351
2024-03-24T12:38:47.719Z,7.4300
2024-03-24T12:39:50.736Z,7.2333
2024-03-24T12:40:55.245Z,7.3012
2024-03-24T12:41:54.968Z,7.1859
2024-03-24T12:42:58.160Z,7.4760
2024-03-24T12:44:01.303Z,8.1493
2024-03-24T12:45:04.353Z,8.3139
2024-03-24T12:46:07.367Z,10.3740
2024-03-24T12:47:10.432Z,10.4019
2024-03-24T12:48:13.498Z,9.9085
2024-03-24T12:49:16.496Z,10.0404
2024-03-24T12:51:22.647Z,9.6349
2024-03-24T12:52:25.646Z,10.0003
2024-03-24T12:53:28.676Z,10.5807
2024-03-24T12:54:31.701Z,10.5197
2024-03-24T12:55:34.757Z,10.1645
2024-03-24T12:56:37.779Z,10.5820
2024-03-24T12:57:40.819Z,10.4222
2024-03-24T12:58:43.863Z,10.4936
2024-03-24T12:59:46.896Z,11.0182
2024-03-24T13:00:49.956Z,10.3105
2024-03-24T13:01:53.075Z,10.2280
2024-03-24T13:02:56.119Z,9.9482
2024-03-24T13:03:59.156Z,10.1074
2024-03-24T13:05:02.171Z,10.8551